Copper City, Michigan
Current Conditions -  °F | °C
As of 10:53 AM on Thursday 30 Oct 2014 (Local Time) from KCMX Reporting Station
Light Rain Light Rain  
Wind Chill: 33°   Ceiling: 500
Heat Index: 39°   Visibility: 6mi
Dew Point: 36°   Wind: 8mph
Humidity: 89%   Direction: 250°WSW
Pressure: 30.01"   Gusts: NA
Location:  47.28°N, 88.39°W
Report Text: KCMX 301453Z AUTO 25007KT 6SM -RA BR BKN005 OVC011 04/02 A3001 RMK AO2 SLP171 P0002 60003 T00390022 50000
Loading
Personal Weather Stations






























Interactive Weather Map
Tropical Storm Tracking
New forecast layout! Learn more

10-Day Weather Forecast

Advertisements
Track Severe Weather on mobile